createdAt,value
2017-08-20T00:01:22.493Z,44.60
2017-08-20T00:03:51.062Z,45.00
2017-08-20T00:06:18.845Z,45.00
2017-08-20T00:08:46.577Z,45.30
2017-08-20T00:11:14.333Z,45.30
2017-08-20T00:13:42.066Z,45.10
2017-08-20T00:16:09.813Z,45.10
2017-08-20T00:18:37.635Z,44.90
2017-08-20T00:21:05.379Z,44.40
2017-08-20T00:23:33.697Z,44.60
2017-08-20T00:26:01.459Z,45.00
2017-08-20T00:28:29.232Z,44.70
2017-08-20T00:30:56.972Z,44.40
2017-08-20T00:33:24.777Z,44.20
2017-08-20T00:35:52.523Z,44.00
2017-08-20T00:38:20.255Z,44.50
2017-08-20T00:40:48.130Z,44.70
2017-08-20T00:43:15.884Z,45.00
2017-08-20T00:45:43.623Z,45.50
2017-08-20T00:48:11.602Z,45.20
2017-08-20T00:50:39.385Z,44.70
2017-08-20T00:53:07.131Z,45.20
2017-08-20T00:55:35.669Z,44.80
2017-08-20T00:58:03.500Z,45.20
2017-08-20T01:00:31.259Z,44.50
2017-08-20T01:02:59.015Z,44.10
2017-08-20T01:05:26.775Z,44.20
2017-08-20T01:07:54.526Z,44.20
2017-08-20T01:10:22.306Z,44.60
2017-08-20T01:12:50.103Z,45.30
2017-08-20T01:15:17.846Z,45.20
2017-08-20T01:17:45.670Z,44.50
2017-08-20T01:20:13.402Z,44.40
2017-08-20T01:22:41.152Z,44.90
2017-08-20T01:25:08.952Z,45.20
2017-08-20T01:27:36.746Z,45.40
2017-08-20T01:30:04.525Z,45.50
2017-08-20T01:32:32.272Z,45.70
2017-08-20T01:35:00.067Z,45.90
2017-08-20T01:37:27.882Z,45.50
2017-08-20T01:39:55.637Z,45.40
2017-08-20T01:42:24.148Z,45.60
2017-08-20T01:44:51.886Z,45.60
2017-08-20T01:47:19.691Z,45.80
2017-08-20T01:49:47.485Z,45.70
2017-08-20T01:52:15.304Z,46.30
2017-08-20T01:54:43.051Z,46.70
2017-08-20T01:57:10.804Z,46.40
2017-08-20T01:59:38.533Z,46.80
2017-08-20T02:02:06.350Z,47.30
2017-08-20T02:04:34.086Z,47.60
2017-08-20T02:07:01.810Z,47.80
2017-08-20T02:09:29.626Z,47.70
2017-08-20T02:11:57.426Z,48.00
2017-08-20T02:14:25.214Z,48.30
2017-08-20T02:16:52.977Z,48.60
2017-08-20T02:19:20.713Z,49.10
2017-08-20T02:21:48.485Z,49.60
2017-08-20T02:24:16.238Z,49.90
2017-08-20T02:26:44.025Z,50.00
2017-08-20T02:29:11.810Z,50.00
2017-08-20T02:31:39.603Z,50.00
2017-08-20T02:34:07.389Z,50.40
2017-08-20T02:36:35.128Z,50.60
2017-08-20T02:39:02.937Z,50.50
2017-08-20T02:41:30.670Z,51.00
2017-08-20T02:43:58.464Z,51.30
2017-08-20T02:46:26.257Z,51.70
2017-08-20T02:48:54.796Z,51.70
2017-08-20T02:51:22.534Z,51.60
2017-08-20T02:53:50.281Z,51.70
2017-08-20T02:56:18.082Z,51.60
2017-08-20T02:58:45.894Z,51.50
2017-08-20T03:01:13.751Z,51.40
2017-08-20T03:03:41.539Z,51.40
2017-08-20T03:06:09.281Z,51.30
2017-08-20T03:08:37.036Z,51.40
2017-08-20T03:11:04.789Z,51.50
2017-08-20T03:13:32.546Z,51.20
2017-08-20T03:16:00.337Z,51.60
2017-08-20T03:18:28.137Z,51.80
2017-08-20T03:20:56.412Z,51.80
2017-08-20T03:23:24.204Z,52.10
2017-08-20T03:25:51.986Z,52.40
2017-08-20T03:28:19.799Z,52.50
2017-08-20T03:30:47.531Z,52.90
2017-08-20T03:33:15.348Z,53.00
2017-08-20T03:35:43.245Z,53.10
2017-08-20T03:38:11.066Z,53.30
2017-08-20T03:40:38.804Z,53.40
2017-08-20T03:43:06.648Z,53.60
2017-08-20T03:45:34.400Z,53.60
2017-08-20T03:48:02.236Z,54.00
2017-08-20T03:50:30.036Z,53.90
2017-08-20T03:52:57.868Z,53.80
2017-08-20T03:55:25.662Z,54.40
2017-08-20T03:57:53.450Z,54.40
2017-08-20T04:00:21.180Z,54.10
2017-08-20T04:02:48.927Z,54.00
2017-08-20T04:05:16.742Z,53.90
2017-08-20T04:07:44.548Z,53.90
2017-08-20T04:10:12.375Z,54.00
2017-08-20T04:12:40.178Z,54.90
2017-08-20T04:15:07.926Z,55.50
2017-08-20T04:17:35.686Z,55.20
2017-08-20T04:20:03.422Z,55.30
2017-08-20T04:22:31.217Z,55.20
2017-08-20T04:24:59.024Z,55.10
2017-08-20T04:27:26.832Z,54.90
2017-08-20T04:29:54.611Z,54.40
2017-08-20T04:32:23.146Z,54.90
2017-08-20T04:34:50.928Z,54.90
2017-08-20T04:37:18.728Z,54.20
2017-08-20T04:39:46.493Z,54.20
2017-08-20T04:42:14.360Z,54.50
2017-08-20T04:44:43.007Z,54.90
2017-08-20T04:47:10.811Z,54.70
2017-08-20T04:49:40.343Z,54.80
2017-08-20T04:52:08.206Z,54.70
2017-08-20T04:54:36.781Z,55.10
2017-08-20T04:57:04.588Z,55.00
2017-08-20T04:59:32.352Z,55.30
2017-08-20T05:02:00.106Z,55.40
2017-08-20T05:04:27.939Z,55.50
2017-08-20T05:06:56.560Z,55.50
2017-08-20T05:09:24.341Z,55.50
2017-08-20T05:11:52.214Z,54.60
2017-08-20T05:14:19.989Z,54.90
2017-08-20T05:16:47.839Z,54.90
2017-08-20T05:19:15.659Z,54.80
2017-08-20T05:21:43.569Z,55.00
2017-08-20T05:24:12.404Z,54.70
2017-08-20T05:26:40.286Z,54.60
2017-08-20T05:29:08.187Z,54.80
2017-08-20T05:31:36.058Z,55.10
2017-08-20T05:34:03.891Z,54.20
2017-08-20T05:36:31.657Z,54.40
2017-08-20T05:38:59.435Z,54.60
2017-08-20T05:41:27.323Z,54.80
2017-08-20T05:43:55.173Z,54.90
2017-08-20T05:46:23.002Z,55.00
2017-08-20T05:48:50.745Z,54.70
2017-08-20T05:51:18.589Z,55.40
2017-08-20T05:53:48.954Z,55.90
2017-08-20T05:56:16.889Z,55.80
2017-08-20T05:58:45.453Z,55.80
2017-08-20T06:01:13.293Z,55.80
2017-08-20T06:03:41.039Z,56.30
2017-08-20T06:06:08.815Z,56.20
2017-08-20T06:08:36.652Z,56.30
2017-08-20T06:11:05.259Z,56.20
2017-08-20T06:13:33.094Z,56.40
2017-08-20T06:16:00.922Z,56.20
2017-08-20T06:18:28.763Z,56.20
2017-08-20T06:20:56.616Z,56.00
2017-08-20T06:23:24.387Z,56.00
2017-08-20T06:25:52.227Z,55.50
2017-08-20T06:28:20.063Z,56.20
2017-08-20T06:30:47.918Z,55.80
2017-08-20T06:33:15.748Z,55.20
2017-08-20T06:35:43.570Z,55.20
2017-08-20T06:38:11.415Z,55.20
2017-08-20T06:40:39.260Z,54.70
2017-08-20T06:43:07.007Z,54.60
2017-08-20T06:48:15.759Z,54.00
2017-08-20T06:50:43.683Z,54.10
2017-08-20T06:53:11.473Z,54.00
2017-08-20T06:55:39.296Z,54.10
2017-08-20T06:58:07.053Z,54.00
2017-08-20T07:00:35.589Z,54.40
2017-08-20T07:03:03.449Z,54.40
2017-08-20T07:05:31.215Z,54.50
2017-08-20T07:07:59.042Z,54.30
2017-08-20T07:10:26.974Z,54.10
2017-08-20T07:12:54.820Z,53.90
2017-08-20T07:15:22.698Z,54.90
2017-08-20T07:17:50.520Z,54.00
2017-08-20T07:20:28.859Z,54.40
2017-08-20T07:22:58.119Z,54.80
2017-08-20T07:25:27.215Z,54.70
2017-08-20T07:27:56.895Z,54.60
2017-08-20T07:30:24.753Z,55.10
2017-08-20T07:32:52.703Z,54.60
2017-08-20T07:35:20.490Z,54.20
2017-08-20T07:37:49.781Z,54.50
2017-08-20T07:40:17.572Z,54.20
2017-08-20T07:42:45.303Z,53.70
2017-08-20T07:45:13.210Z,54.20
2017-08-20T07:47:41.254Z,54.50
2017-08-20T07:50:09.042Z,55.90
2017-08-20T07:52:36.838Z,53.10
2017-08-20T07:55:04.577Z,53.10
2017-08-20T07:57:32.287Z,52.70
2017-08-20T08:00:00.087Z,52.40
2017-08-20T08:02:27.895Z,53.20
2017-08-20T08:04:55.671Z,51.80
2017-08-20T08:07:23.399Z,51.90
2017-08-20T08:09:51.198Z,52.10
2017-08-20T08:12:19.951Z,51.80
2017-08-20T08:14:47.695Z,51.70
2017-08-20T08:17:16.175Z,50.40
2017-08-20T08:19:43.902Z,49.80
2017-08-20T08:22:11.701Z,50.00
2017-08-20T08:24:39.537Z,50.00
2017-08-20T08:27:07.284Z,49.60
2017-08-20T08:29:35.225Z,48.70
2017-08-20T08:32:03.023Z,48.00
2017-08-20T08:34:30.818Z,47.70
2017-08-20T08:36:58.545Z,48.00
2017-08-20T08:39:26.259Z,47.50
2017-08-20T08:41:54.040Z,46.50
2017-08-20T08:44:23.303Z,47.50
2017-08-20T08:46:52.651Z,47.50
2017-08-20T08:49:21.271Z,46.00
2017-08-20T08:51:49.039Z,46.50
2017-08-20T08:54:16.813Z,45.70
2017-08-20T08:56:44.590Z,45.40
2017-08-20T08:59:12.369Z,44.90
2017-08-20T09:01:40.156Z,45.80
2017-08-20T09:04:07.948Z,45.40
2017-08-20T09:06:36.471Z,44.50
2017-08-20T09:09:04.240Z,44.40
2017-08-20T09:11:31.961Z,45.90
2017-08-20T09:13:59.697Z,46.00
2017-08-20T09:16:27.494Z,44.60
2017-08-20T09:18:55.215Z,44.50
2017-08-20T09:21:23.003Z,44.30
2017-08-20T09:23:50.732Z,44.50
2017-08-20T09:26:18.440Z,43.70
2017-08-20T09:28:46.220Z,44.70
2017-08-20T09:31:14.721Z,45.30
2017-08-20T09:33:42.457Z,44.80
2017-08-20T09:36:10.200Z,44.50
2017-08-20T09:38:38.902Z,42.50
2017-08-20T09:41:06.636Z,43.40
2017-08-20T09:43:34.518Z,43.10
2017-08-20T09:46:02.231Z,42.40
2017-08-20T09:48:29.962Z,42.70
2017-08-20T09:50:57.688Z,42.40
2017-08-20T09:53:25.429Z,41.60
2017-08-20T09:55:53.922Z,42.20
2017-08-20T09:58:21.674Z,42.20
2017-08-20T10:00:49.449Z,42.40
2017-08-20T10:03:17.212Z,41.70
2017-08-20T10:05:45.001Z,42.50
2017-08-20T10:08:13.045Z,42.10
2017-08-20T10:10:40.845Z,41.10
2017-08-20T10:13:08.631Z,41.20
2017-08-20T10:15:36.404Z,41.10
2017-08-20T10:18:04.170Z,40.40
2017-08-20T10:20:32.000Z,39.90
2017-08-20T10:22:59.834Z,40.50
2017-08-20T10:25:27.638Z,41.10
2017-08-20T10:27:55.464Z,40.90
2017-08-20T10:30:23.232Z,40.10
2017-08-20T10:32:52.068Z,40.90
2017-08-20T10:35:19.882Z,41.20
2017-08-20T10:37:48.200Z,41.30
2017-08-20T10:40:15.950Z,40.60
2017-08-20T10:42:44.722Z,40.60
2017-08-20T10:45:12.539Z,39.50
2017-08-20T10:47:40.359Z,40.00
2017-08-20T10:50:13.005Z,40.30
2017-08-20T10:52:43.342Z,39.70
2017-08-20T10:55:11.115Z,39.70
2017-08-20T10:57:38.880Z,39.80
2017-08-20T11:00:06.692Z,38.70
2017-08-20T11:02:34.525Z,39.20
2017-08-20T11:07:40.070Z,38.50
2017-08-20T11:10:07.927Z,39.30
2017-08-20T11:12:35.741Z,39.00
2017-08-20T11:15:03.493Z,38.50
2017-08-20T11:17:32.223Z,38.70
2017-08-20T11:19:59.972Z,38.60
2017-08-20T11:22:27.802Z,39.50
2017-08-20T11:24:58.352Z,39.60
2017-08-20T11:27:27.164Z,39.30
2017-08-20T11:29:55.109Z,38.40
2017-08-20T11:32:22.927Z,38.90
2017-08-20T11:34:52.504Z,38.70
2017-08-20T11:37:32.831Z,38.60
2017-08-20T11:40:01.403Z,39.20
2017-08-20T11:42:29.365Z,38.10
2017-08-20T11:45:00.590Z,37.90
2017-08-20T11:47:28.623Z,37.90
2017-08-20T11:49:57.870Z,37.60
2017-08-20T11:52:25.775Z,38.20
2017-08-20T11:54:53.543Z,38.20
2017-08-20T11:57:21.298Z,36.80
2017-08-20T11:59:49.087Z,37.90
2017-08-20T12:02:22.755Z,37.60
2017-08-20T12:04:50.493Z,36.70
2017-08-20T12:07:18.307Z,34.50
2017-08-20T12:09:46.059Z,33.40
2017-08-20T12:12:13.849Z,34.60
2017-08-20T12:14:41.591Z,35.20
2017-08-20T12:17:09.356Z,35.10
2017-08-20T12:19:37.168Z,35.20
2017-08-20T12:22:04.949Z,34.00
2017-08-20T12:24:32.741Z,34.20
2017-08-20T12:27:01.913Z,33.90
2017-08-20T12:29:30.571Z,33.80
2017-08-20T12:31:58.292Z,32.50
2017-08-20T12:34:26.078Z,32.50
2017-08-20T12:36:53.808Z,33.60
2017-08-20T12:39:21.584Z,34.10
2017-08-20T12:41:49.295Z,32.40
2017-08-20T12:44:17.027Z,31.50
2017-08-20T12:46:44.757Z,33.20
2017-08-20T12:49:12.538Z,32.70
2017-08-20T12:51:40.272Z,32.60
2017-08-20T12:54:08.283Z,32.30
2017-08-20T12:56:36.027Z,33.50
2017-08-20T12:59:03.809Z,34.00
2017-08-20T13:01:31.556Z,33.90
2017-08-20T13:03:59.294Z,33.70
2017-08-20T13:06:27.866Z,33.40
2017-08-20T13:08:55.642Z,33.30
2017-08-20T13:11:23.361Z,33.10
2017-08-20T13:13:51.098Z,34.00
2017-08-20T13:16:18.890Z,34.50
2017-08-20T13:18:46.680Z,34.30
2017-08-20T13:21:14.494Z,33.60
2017-08-20T13:23:42.231Z,34.30
2017-08-20T13:26:09.974Z,33.90
2017-08-20T13:28:37.765Z,33.80
2017-08-20T13:31:05.500Z,33.50
2017-08-20T13:33:33.277Z,33.60
2017-08-20T13:36:01.080Z,33.00
2017-08-20T13:38:28.793Z,32.10
2017-08-20T13:40:56.523Z,32.60
2017-08-20T13:43:24.318Z,33.20
2017-08-20T13:45:52.093Z,32.70
2017-08-20T13:48:19.882Z,33.50
2017-08-20T13:50:47.616Z,33.00
2017-08-20T13:53:15.431Z,33.20
2017-08-20T13:55:43.178Z,32.70
2017-08-20T13:58:10.920Z,32.70
2017-08-20T14:00:38.708Z,32.90
2017-08-20T14:03:06.433Z,32.80
2017-08-20T14:05:34.449Z,33.20
2017-08-20T14:08:02.280Z,32.60
2017-08-20T14:10:30.033Z,32.80
2017-08-20T14:12:57.795Z,32.50
2017-08-20T14:15:25.521Z,32.30
2017-08-20T14:17:53.296Z,32.40
2017-08-20T14:20:21.072Z,31.90
2017-08-20T14:22:48.836Z,32.00
2017-08-20T14:25:16.626Z,32.10
2017-08-20T14:27:44.412Z,32.00
2017-08-20T14:30:12.168Z,32.60
2017-08-20T14:32:39.956Z,32.30
2017-08-20T14:35:07.672Z,32.40
2017-08-20T14:37:35.449Z,32.70
2017-08-20T14:40:03.165Z,32.90
2017-08-20T14:42:32.353Z,32.40
2017-08-20T14:45:00.136Z,32.50
2017-08-20T14:47:27.928Z,32.20
2017-08-20T14:49:55.683Z,32.10
2017-08-20T14:52:23.406Z,32.00
2017-08-20T14:54:51.211Z,31.50
2017-08-20T14:57:18.967Z,31.10
2017-08-20T14:59:46.679Z,31.30
2017-08-20T15:02:14.461Z,30.30
2017-08-20T15:04:42.256Z,30.80
2017-08-20T15:07:10.047Z,31.30
2017-08-20T15:09:37.909Z,30.80
2017-08-20T15:12:05.721Z,30.90
2017-08-20T15:14:33.432Z,30.90
2017-08-20T15:17:01.149Z,31.10
2017-08-20T15:19:29.698Z,31.00
2017-08-20T15:21:57.446Z,31.00
2017-08-20T15:24:25.225Z,30.90
2017-08-20T15:26:53.013Z,30.30
2017-08-20T15:29:20.800Z,30.80
2017-08-20T15:31:48.533Z,30.60
2017-08-20T15:34:16.274Z,30.50
2017-08-20T15:36:44.078Z,30.50
2017-08-20T15:39:11.799Z,30.90
2017-08-20T15:41:39.616Z,30.50
2017-08-20T15:44:07.397Z,29.90
2017-08-20T15:46:35.184Z,29.50
2017-08-20T15:49:02.965Z,29.50
2017-08-20T15:51:31.797Z,29.00
2017-08-20T15:53:59.597Z,28.70
2017-08-20T15:56:27.391Z,29.00
2017-08-20T15:58:55.265Z,29.50
2017-08-20T16:01:23.121Z,28.10
2017-08-20T16:03:54.568Z,29.00
2017-08-20T16:06:22.391Z,29.30
2017-08-20T16:08:50.131Z,29.80
2017-08-20T16:11:17.924Z,29.70
2017-08-20T16:13:45.689Z,29.70
2017-08-20T16:16:13.494Z,29.60
2017-08-20T16:18:41.233Z,29.90
2017-08-20T16:21:08.989Z,29.90
2017-08-20T16:23:36.782Z,30.10
2017-08-20T16:26:04.500Z,30.00
2017-08-20T16:28:32.315Z,29.80
2017-08-20T16:31:00.116Z,30.50
2017-08-20T16:33:27.858Z,30.60
2017-08-20T16:35:55.599Z,30.20
2017-08-20T16:38:23.389Z,29.90
2017-08-20T16:40:51.111Z,29.70
2017-08-20T16:43:18.916Z,30.30
2017-08-20T16:45:46.668Z,30.00
2017-08-20T16:48:14.421Z,30.10
2017-08-20T16:50:42.175Z,29.80
2017-08-20T16:53:10.346Z,29.60
2017-08-20T16:55:38.382Z,30.00
2017-08-20T16:58:06.124Z,30.20
2017-08-20T17:00:33.857Z,30.80
2017-08-20T17:03:01.633Z,30.50
2017-08-20T17:05:29.391Z,30.40
2017-08-20T17:07:57.219Z,30.80
2017-08-20T17:10:24.995Z,31.00
2017-08-20T17:12:52.839Z,31.30
2017-08-20T17:15:31.138Z,31.50
2017-08-20T17:17:58.972Z,31.20
2017-08-20T17:20:26.720Z,30.70
2017-08-20T17:22:54.507Z,30.50
2017-08-20T17:25:22.350Z,30.40
2017-08-20T17:27:50.171Z,30.40
2017-08-20T17:30:17.949Z,30.50
2017-08-20T17:32:45.860Z,30.10
2017-08-20T17:35:13.912Z,29.50
2017-08-20T17:37:42.509Z,30.70
2017-08-20T17:40:10.250Z,30.90
2017-08-20T17:42:38.068Z,31.00
2017-08-20T17:45:05.857Z,30.80
2017-08-20T17:47:35.737Z,31.00
2017-08-20T17:50:03.997Z,31.80
2017-08-20T17:52:31.833Z,31.80
2017-08-20T17:54:59.787Z,32.10
2017-08-20T17:57:27.534Z,32.10
2017-08-20T17:59:55.587Z,32.20
2017-08-20T18:03:41.864Z,33.10
2017-08-20T18:06:09.604Z,32.70
2017-08-20T18:08:37.403Z,33.00
2017-08-20T18:11:05.973Z,32.40
2017-08-20T18:13:33.812Z,32.90
2017-08-20T18:16:01.749Z,32.80
2017-08-20T18:18:30.339Z,33.10
2017-08-20T18:20:58.152Z,33.10
2017-08-20T18:23:26.033Z,33.50
2017-08-20T18:25:53.796Z,33.60
2017-08-20T18:28:21.578Z,33.80
2017-08-20T18:30:49.787Z,33.90
2017-08-20T18:33:17.983Z,34.10
2017-08-20T18:35:45.818Z,34.10
2017-08-20T18:38:13.612Z,34.30
2017-08-20T18:40:41.365Z,34.40
2017-08-20T18:43:09.162Z,34.50
2017-08-20T18:45:36.905Z,34.50
2017-08-20T18:48:04.636Z,34.70
2017-08-20T18:50:32.376Z,35.10
2017-08-20T18:53:00.239Z,35.40
2017-08-20T18:55:28.118Z,35.90
2017-08-20T18:57:56.549Z,36.00
2017-08-20T19:00:25.437Z,36.10
2017-08-20T19:02:54.073Z,36.50
2017-08-20T19:05:23.526Z,37.00
2017-08-20T19:07:51.695Z,37.50
2017-08-20T19:10:20.637Z,37.60
2017-08-20T19:12:48.964Z,38.00
2017-08-20T19:15:19.055Z,38.30
2017-08-20T19:17:49.356Z,38.70
2017-08-20T19:20:18.109Z,38.70
2017-08-20T19:22:46.620Z,38.90
2017-08-20T19:25:15.591Z,39.10
2017-08-20T19:27:43.985Z,39.20
2017-08-20T19:30:13.157Z,39.30
2017-08-20T19:32:41.182Z,39.50
2017-08-20T19:35:09.646Z,39.60
2017-08-20T19:37:38.552Z,39.80
2017-08-20T19:40:06.889Z,40.00
2017-08-20T19:42:34.897Z,40.00
2017-08-20T19:45:03.689Z,40.20
2017-08-20T19:47:33.442Z,40.50
2017-08-20T19:50:02.116Z,40.60
2017-08-20T19:52:29.854Z,40.60
2017-08-20T19:54:57.667Z,40.70
2017-08-20T19:57:25.406Z,40.80
2017-08-20T19:59:53.183Z,40.80
2017-08-20T20:02:20.939Z,41.00
2017-08-20T20:04:48.673Z,41.40
2017-08-20T20:07:16.402Z,41.50
2017-08-20T20:09:44.190Z,41.70
2017-08-20T20:12:11.922Z,41.70
2017-08-20T20:14:39.657Z,41.70
2017-08-20T20:17:08.191Z,42.30
2017-08-20T20:19:35.997Z,42.20
2017-08-20T20:22:03.799Z,42.30
2017-08-20T20:24:31.593Z,42.50
2017-08-20T20:26:59.377Z,42.70
2017-08-20T20:29:27.133Z,42.80
2017-08-20T20:31:54.876Z,42.90
2017-08-20T20:34:22.673Z,43.10
2017-08-20T20:36:50.414Z,43.10
2017-08-20T20:39:18.144Z,43.20
2017-08-20T20:41:45.868Z,43.20
2017-08-20T20:44:13.597Z,43.20
2017-08-20T20:46:41.367Z,43.20
2017-08-20T20:49:09.149Z,43.30
2017-08-20T20:51:37.009Z,43.30
2017-08-20T20:54:04.814Z,43.40
2017-08-20T20:56:32.615Z,43.60
2017-08-20T20:59:01.219Z,44.30
2017-08-20T21:01:29.014Z,44.30
2017-08-20T21:03:56.792Z,44.40
2017-08-20T21:06:24.538Z,44.70
2017-08-20T21:08:52.336Z,44.90
2017-08-20T21:11:20.158Z,45.20
2017-08-20T21:13:47.940Z,45.10
2017-08-20T21:16:15.663Z,45.00
2017-08-20T21:18:43.464Z,45.20
2017-08-20T21:21:11.245Z,45.50
2017-08-20T21:23:39.024Z,45.80
2017-08-20T21:26:06.819Z,45.90
2017-08-20T21:28:34.626Z,46.20
2017-08-20T21:31:02.419Z,46.30
2017-08-20T21:33:30.164Z,46.50
2017-08-20T21:35:57.934Z,46.70
2017-08-20T21:38:25.682Z,46.80
2017-08-20T21:40:53.409Z,47.00
2017-08-20T21:43:21.154Z,47.90
2017-08-20T21:45:48.877Z,47.50
2017-08-20T21:48:16.605Z,47.60
2017-08-20T21:50:44.352Z,47.50
2017-08-20T21:53:12.089Z,47.70
2017-08-20T21:55:39.865Z,47.70
2017-08-20T21:58:07.601Z,47.70
2017-08-20T22:00:35.354Z,47.80
2017-08-20T22:03:03.183Z,48.10
2017-08-20T22:05:30.980Z,47.50
2017-08-20T22:07:58.697Z,46.90
2017-08-20T22:10:26.476Z,46.70
2017-08-20T22:12:54.288Z,47.30
2017-08-20T22:15:22.014Z,47.40
2017-08-20T22:17:49.781Z,46.90
2017-08-20T22:20:17.526Z,47.10
2017-08-20T22:22:45.312Z,47.40
2017-08-20T22:25:13.090Z,47.10
2017-08-20T22:27:40.828Z,46.90
2017-08-20T22:30:10.360Z,46.60
2017-08-20T22:32:39.630Z,46.60
2017-08-20T22:35:08.213Z,45.90
2017-08-20T22:37:36.750Z,45.50
2017-08-20T22:40:04.508Z,45.10
2017-08-20T22:42:32.261Z,44.90
2017-08-20T22:45:00.350Z,45.10
2017-08-20T22:47:28.149Z,44.40
2017-08-20T22:49:56.561Z,44.10
2017-08-20T22:52:24.370Z,44.10
2017-08-20T22:54:52.111Z,43.90
2017-08-20T22:57:19.878Z,44.20
2017-08-20T22:59:47.691Z,44.00
2017-08-20T23:02:15.412Z,44.10
2017-08-20T23:04:43.141Z,44.40
2017-08-20T23:07:10.966Z,44.00
2017-08-20T23:09:38.689Z,43.90
2017-08-20T23:12:06.402Z,44.00
2017-08-20T23:14:34.193Z,44.10
2017-08-20T23:17:02.971Z,44.30
2017-08-20T23:19:30.687Z,44.30
2017-08-20T23:21:58.473Z,44.70
2017-08-20T23:24:26.213Z,44.30
2017-08-20T23:26:53.937Z,44.70
2017-08-20T23:29:21.751Z,44.10
2017-08-20T23:31:49.490Z,43.90
2017-08-20T23:34:17.266Z,44.00
2017-08-20T23:36:45.050Z,44.20
2017-08-20T23:39:12.780Z,44.30
2017-08-20T23:41:40.570Z,44.20
2017-08-20T23:44:08.305Z,44.50
2017-08-20T23:46:36.024Z,44.50
2017-08-20T23:49:03.750Z,44.70
2017-08-20T23:51:31.499Z,44.20
2017-08-20T23:53:59.212Z,44.30
2017-08-20T23:56:27.008Z,44.30
2017-08-20T23:58:54.812Z,45.00
